Time;durP1;ratioP1;P1;durP2;ratioP2;P2;SDS_P1;SDS_P2;PMS_P1;PMS_P2;Temp;Humidity;BMP_temperature;BMP_pressure;BME280_temperature;BME280_humidity;BME280_pressure;Samples;Min_cycle;Max_cycle;Signal;HPM_P1;HPM_P2
2023/08/26 00:00:57;;;;;;;18.00;17.00;;;22.50;1.00;;;;;;5079477;28;20502;-86
2023/08/26 00:03:32;;;;;;;18.60;17.73;;;22.50;1.00;;;;;;5082802;28;20315;-85
2023/08/26 00:06:06;;;;;;;17.30;16.50;;;22.40;1.00;;;;;;5079458;28;20464;-85
2023/08/26 00:08:39;;;;;;;18.13;17.05;;;22.40;99.90;;;;;;5079175;28;20899;-86
2023/08/26 00:11:11;;;;;;;18.33;17.10;;;22.40;1.00;;;;;;5079087;28;20293;-85
2023/08/26 00:13:44;;;;;;;17.77;16.83;;;22.40;1.00;;;;;;5081252;28;20450;-85
2023/08/26 00:16:15;;;;;;;18.03;17.03;;;22.40;99.90;;;;;;5080500;28;20450;-85
2023/08/26 00:18:49;;;;;;;17.45;16.65;;;22.40;99.90;;;;;;5077783;28;20442;-86
2023/08/26 00:21:21;;;;;;;16.93;16.17;;;22.30;99.90;;;;;;5078954;28;20273;-85
2023/08/26 00:23:54;;;;;;;17.83;16.90;;;22.30;1.00;;;;;;5079758;28;20458;-86
2023/08/26 00:26:24;;;;;;;17.80;17.00;;;22.30;1.00;;;;;;5079482;28;20462;-86
2023/08/26 00:29:01;;;;;;;17.43;16.53;;;22.20;99.90;;;;;;5079656;28;20503;-85
2023/08/26 00:31:38;;;;;;;16.83;16.13;;;22.10;22.60;;;;;;5079334;28;20465;-90
2023/08/26 00:34:09;;;;;;;17.00;16.10;;;22.00;42.10;;;;;;5076777;28;20525;-85
2023/08/26 00:36:40;;;;;;;16.10;15.40;;;22.00;99.90;;;;;;5077833;28;20449;-87
2023/08/26 00:39:16;;;;;;;15.63;14.93;;;22.00;99.90;;;;;;5083121;28;20546;-86
2023/08/26 00:41:49;;;;;;;16.20;15.50;;;22.00;1.00;;;;;;5076434;28;20478;-85
2023/08/26 00:44:22;;;;;;;15.90;15.30;;;22.10;1.00;;;;;;5078067;28;20456;-84
2023/08/26 00:46:54;;;;;;;16.00;15.40;;;22.00;99.90;;;;;;5075491;28;20254;-85
2023/08/26 00:49:28;;;;;;;16.20;15.43;;;22.10;1.00;;;;;;5079664;28;20997;-86
2023/08/26 00:51:59;;;;;;;15.33;14.73;;;22.10;99.90;;;;;;5077879;28;20437;-89
2023/08/26 00:54:35;;;;;;;16.43;15.63;;;22.10;1.00;;;;;;5078887;28;20451;-85
2023/08/26 00:57:09;;;;;;;15.90;15.20;;;22.10;99.90;;;;;;5078950;28;20443;-85
2023/08/26 00:59:41;;;;;;;15.60;14.90;;;22.10;99.90;;;;;;5082971;28;20224;-86
2023/08/26 01:02:09;;;;;;;16.23;15.53;;;22.10;99.90;;;;;;5077682;28;20929;-85
2023/08/26 01:04:44;;;;;;;14.93;14.43;;;22.10;22.50;;;;;;5079985;28;21030;-86
2023/08/26 01:07:17;;;;;;;15.93;14.93;;;22.10;99.90;;;;;;5081276;28;20454;-84
2023/08/26 01:09:59;;;;;;;14.90;14.40;;;22.00;99.90;;;;;;5083427;28;20843;-85
2023/08/26 01:12:39;;;;;;;15.10;14.50;;;22.00;99.90;;;;;;5080412;28;21007;-86
2023/08/26 01:15:10;;;;;;;14.90;14.30;;;22.00;1.00;;;;;;5080655;28;20961;-86
2023/08/26 01:17:41;;;;;;;15.02;14.50;;;21.90;1.00;;;;;;5078637;28;20667;-87
2023/08/26 01:20:16;;;;;;;14.87;14.30;;;21.90;99.90;;;;;;5078751;28;20311;-85
2023/08/26 01:22:46;;;;;;;15.03;14.53;;;21.90;81.60;;;;;;5081998;28;20482;-85
2023/08/26 01:25:21;;;;;;;15.10;14.47;;;21.90;99.90;;;;;;5079172;28;20501;-90
2023/08/26 01:27:54;;;;;;;14.80;14.20;;;21.80;99.90;;;;;;5081531;28;20513;-85
2023/08/26 01:30:26;;;;;;;14.53;14.03;;;21.80;99.90;;;;;;5079834;28;20557;-85
2023/08/26 01:33:05;;;;;;;15.00;14.30;;;21.90;99.90;;;;;;5079456;28;20951;-86
2023/08/26 01:35:41;;;;;;;15.00;14.43;;;21.90;99.90;;;;;;5084680;28;20481;-85
2023/08/26 01:38:12;;;;;;;15.27;14.67;;;21.90;99.20;;;;;;5078654;28;20453;-88
2023/08/26 01:40:48;;;;;;;15.35;14.77;;;21.90;1.00;;;;;;5073291;28;20486;-86
2023/08/26 01:43:18;;;;;;;14.90;14.40;;;21.90;1.00;;;;;;5086790;28;20322;-85
2023/08/26 01:45:52;;;;;;;14.53;14.03;;;21.90;1.00;;;;;;5085278;28;20484;-86
2023/08/26 01:48:21;;;;;;;14.90;14.33;;;21.90;1.00;;;;;;5079146;28;20445;-86
2023/08/26 01:50:52;;;;;;;14.80;14.20;;;21.90;1.00;;;;;;5072181;28;20524;-85
2023/08/26 01:53:25;;;;;;;14.23;13.83;;;21.90;1.00;;;;;;5077730;28;20469;-85
2023/08/26 01:56:00;;;;;;;14.37;13.87;;;21.90;1.00;;;;;;5081592;28;20551;-86
2023/08/26 01:58:33;;;;;;;15.23;14.60;;;21.90;1.00;;;;;;5079122;28;20458;-86
2023/08/26 02:01:06;;;;;;;15.50;14.80;;;21.90;1.00;;;;;;5076893;28;20475;-85
2023/08/26 02:03:37;;;;;;;15.33;14.73;;;21.90;1.00;;;;;;5079342;28;20482;-87
2023/08/26 02:06:06;;;;;;;14.70;14.20;;;21.80;1.00;;;;;;5075660;28;20453;-85
2023/08/26 02:08:39;;;;;;;14.93;14.30;;;21.90;1.00;;;;;;5077156;28;20481;-85
2023/08/26 02:11:14;;;;;;;15.40;14.73;;;21.80;99.90;;;;;;5079670;28;20477;-85
2023/08/26 02:13:45;;;;;;;15.10;14.50;;;21.80;57.90;;;;;;5080343;28;20529;-86
2023/08/26 02:16:15;;;;;;;15.77;14.97;;;21.80;99.90;;;;;;5076113;28;20449;-86
2023/08/26 02:18:48;;;;;;;15.20;14.40;;;21.90;17.40;;;;;;5082064;28;20447;-85
2023/08/26 02:21:18;;;;;;;15.45;14.85;;;21.80;53.80;;;;;;5077553;28;20228;-85
2023/08/26 02:23:52;;;;;;;15.43;14.83;;;21.80;1.00;;;;;;5082757;28;20300;-87
2023/08/26 02:26:27;;;;;;;15.03;14.53;;;21.80;1.00;;;;;;5079590;28;20463;-85
2023/08/26 02:28:55;;;;;;;15.20;14.63;;;21.80;1.00;;;;;;5081627;28;20487;-86
2023/08/26 02:31:24;;;;;;;15.40;14.70;;;21.90;99.90;;;;;;5078902;28;20484;-87
2023/08/26 02:33:54;;;;;;;15.77;15.13;;;21.80;1.00;;;;;;5076191;28;20466;-86
2023/08/26 02:36:24;;;;;;;15.82;15.23;;;21.80;99.90;;;;;;5079401;28;20539;-85
2023/08/26 02:38:53;;;;;;;15.93;15.23;;;21.80;12.00;;;;;;5077226;28;20196;-86
2023/08/26 02:41:28;;;;;;;15.33;14.73;;;21.70;1.00;;;;;;5080481;28;20477;-86
2023/08/26 02:43:56;;;;;;;16.10;15.50;;;21.70;1.00;;;;;;5078824;28;20509;-85
2023/08/26 02:46:30;;;;;;;15.47;14.97;;;21.70;2.60;;;;;;5078388;28;20461;-86
2023/08/26 02:48:58;;;;;;;15.75;15.05;;;21.70;1.00;;;;;;5079911;28;20760;-86
2023/08/26 02:51:29;;;;;;;16.17;15.37;;;21.70;1.00;;;;;;5077317;28;20224;-86
2023/08/26 02:53:58;;;;;;;16.23;15.53;;;21.70;99.90;;;;;;5078777;28;20534;-85
2023/08/26 02:56:31;;;;;;;15.20;14.70;;;21.70;1.00;;;;;;5076617;28;20449;-85
2023/08/26 02:59:09;;;;;;;15.80;15.13;;;21.70;1.00;;;;;;5075303;28;20810;-85
2023/08/26 03:02:02;;;;;;;16.20;15.50;;;21.70;9.30;;;;;;5080389;28;20450;-85
2023/08/26 03:04:37;;;;;;;15.80;15.00;;;21.70;99.90;;;;;;5077353;28;20615;-85
2023/08/26 03:07:08;;;;;;;16.03;15.33;;;21.70;99.90;;;;;;5078522;28;20445;-85
2023/08/26 03:09:39;;;;;;;16.00;15.27;;;21.70;1.00;;;;;;5075709;28;20536;-83
2023/08/26 03:12:09;;;;;;;15.63;14.93;;;21.60;1.00;;;;;;5073765;28;20451;-89
2023/08/26 03:14:42;;;;;;;15.83;15.03;;;21.60;1.00;;;;;;5078414;28;20445;-85
2023/08/26 03:17:18;;;;;;;16.03;15.17;;;21.60;1.00;;;;;;5074423;28;20453;-86
2023/08/26 03:19:49;;;;;;;15.80;15.20;;;21.60;1.00;;;;;;5074892;28;20524;-85
2023/08/26 03:22:18;;;;;;;15.90;15.30;;;21.60;1.00;;;;;;5076949;28;20295;-88
2023/08/26 03:24:47;;;;;;;15.70;15.10;;;21.60;99.90;;;;;;5082985;28;21008;-85
2023/08/26 03:27:29;;;;;;;16.33;15.60;;;21.60;99.90;;;;;;5080289;28;20464;-85
2023/08/26 03:29:57;;;;;;;16.20;15.60;;;21.60;95.10;;;;;;5077036;28;20219;-86
2023/08/26 03:32:31;;;;;;;16.47;15.67;;;21.60;94.20;;;;;;5080404;28;20541;-86
2023/08/26 03:35:02;;;;;;;17.13;16.20;;;21.60;1.00;;;;;;5079654;28;20457;-86
2023/08/26 03:37:34;;;;;;;16.73;16.03;;;21.50;99.90;;;;;;5084716;28;20968;-85
2023/08/26 03:40:09;;;;;;;16.80;15.90;;;21.50;99.90;;;;;;5082279;28;20505;-86
2023/08/26 03:42:39;;;;;;;16.33;15.33;;;21.50;41.90;;;;;;5096763;28;20453;-86
2023/08/26 03:45:13;;;;;;;16.20;15.50;;;21.50;67.90;;;;;;5084811;28;20456;-86
2023/08/26 03:47:45;;;;;;;16.73;15.83;;;21.50;1.00;;;;;;5079747;28;20464;-86
2023/08/26 03:50:15;;;;;;;16.17;15.37;;;21.40;1.00;;;;;;5078864;28;20555;-87
2023/08/26 03:52:51;;;;;;;16.20;15.50;;;21.40;99.90;;;;;;5079009;28;20444;-86
2023/08/26 03:55:22;;;;;;;16.83;15.90;;;21.40;35.30;;;;;;5080985;28;20476;-87
2023/08/26 03:57:52;;;;;;;16.67;15.60;;;21.40;99.90;;;;;;5077295;28;20449;-87
2023/08/26 04:00:24;;;;;;;16.27;15.50;;;21.40;99.90;;;;;;5080185;28;20504;-86
2023/08/26 04:02:53;;;;;;;16.67;15.77;;;21.30;99.90;;;;;;5079699;28;20460;-86
2023/08/26 04:05:25;;;;;;;16.40;15.47;;;21.30;94.60;;;;;;5080565;28;20485;-85
2023/08/26 04:07:54;;;;;;;16.47;15.70;;;21.30;1.00;;;;;;5087031;28;20465;-86
2023/08/26 04:10:32;;;;;;;16.70;15.77;;;21.20;1.00;;;;;;5084784;28;20513;-86
2023/08/26 04:13:20;;;;;;;16.67;15.43;;;21.20;99.90;;;;;;5078839;28;20480;-88
2023/08/26 04:15:49;;;;;;;16.27;15.48;;;21.20;1.00;;;;;;5081861;28;20453;-86
2023/08/26 04:18:22;;;;;;;16.47;15.37;;;21.20;99.90;;;;;;5082798;28;20214;-86
2023/08/26 04:20:52;;;;;;;16.80;15.60;;;21.30;99.90;;;;;;5080102;28;20722;-85
2023/08/26 04:23:26;;;;;;;16.90;16.07;;;21.30;99.90;;;;;;5084132;28;20864;-85
2023/08/26 04:26:00;;;;;;;15.83;15.13;;;21.30;99.90;;;;;;5079527;28;20449;-86
2023/08/26 04:28:33;;;;;;;16.40;15.67;;;21.30;99.90;;;;;;5079338;28;20551;-86
2023/08/26 04:31:07;;;;;;;16.53;15.60;;;21.30;1.00;;;;;;5080881;28;20985;-86
2023/08/26 04:33:43;;;;;;;16.30;15.60;;;21.30;99.90;;;;;;5079897;28;20515;-86
2023/08/26 04:36:16;;;;;;;16.70;15.90;;;21.20;1.00;;;;;;5082499;28;20474;-86
2023/08/26 04:38:52;;;;;;;17.10;16.20;;;21.20;1.00;;;;;;5077163;28;20464;-89
2023/08/26 04:41:24;;;;;;;16.60;15.70;;;21.20;1.00;;;;;;5082149;28;20908;-85
2023/08/26 04:43:56;;;;;;;16.33;15.52;;;21.20;1.00;;;;;;5078924;28;20482;-86
2023/08/26 04:46:29;;;;;;;17.10;16.30;;;21.20;1.00;;;;;;5080989;28;20196;-85
2023/08/26 04:49:00;;;;;;;16.97;16.07;;;21.20;99.90;;;;;;5080645;28;20445;-86
2023/08/26 04:51:33;;;;;;;17.47;16.67;;;21.20;99.90;;;;;;5078365;28;20480;-88
2023/08/26 04:54:03;;;;;;;16.60;15.70;;;21.20;99.90;;;;;;5080436;28;20533;-85
2023/08/26 04:56:32;;;;;;;16.63;15.83;;;21.10;99.90;;;;;;5077184;28;20970;-85
2023/08/26 04:59:02;;;;;;;16.43;15.60;;;21.10;99.90;;;;;;5084930;28;20449;-87
2023/08/26 05:01:34;;;;;;;16.47;15.77;;;21.10;99.90;;;;;;5079291;28;20481;-85
2023/08/26 05:04:08;;;;;;;16.70;15.80;;;21.10;99.90;;;;;;5082420;28;20480;-86
2023/08/26 05:06:37;;;;;;;16.20;15.27;;;21.10;1.00;;;;;;5080393;28;21011;-87
2023/08/26 05:09:12;;;;;;;16.90;15.60;;;21.10;1.00;;;;;;5079234;28;20461;-85
2023/08/26 05:11:40;;;;;;;16.80;15.90;;;21.20;99.90;;;;;;5081141;28;20470;-86
2023/08/26 05:14:16;;;;;;;16.80;15.93;;;21.10;1.00;;;;;;5077368;28;21079;-86
2023/08/26 05:16:47;;;;;;;16.43;15.63;;;21.00;1.00;;;;;;5082216;28;20437;-86
2023/08/26 05:19:21;;;;;;;17.37;16.23;;;21.00;99.90;;;;;;5078139;28;20881;-85
2023/08/26 05:21:53;;;;;;;17.07;16.13;;;21.00;1.00;;;;;;5082468;28;21558;-85
2023/08/26 05:24:31;;;;;;;16.73;15.93;;;21.10;99.90;;;;;;5079574;28;20566;-85
2023/08/26 05:27:01;;;;;;;16.63;15.63;;;21.10;99.90;;;;;;5080540;28;20469;-85
2023/08/26 05:29:34;;;;;;;16.70;16.00;;;21.10;1.00;;;;;;5081824;28;20199;-85
2023/08/26 05:32:05;;;;;;;16.63;15.87;;;21.20;1.00;;;;;;5077546;28;20452;-85
2023/08/26 05:34:33;;;;;;;17.02;16.15;;;21.10;4.50;;;;;;5078289;28;20559;-86
2023/08/26 05:37:05;;;;;;;16.63;15.83;;;21.10;99.90;;;;;;5079323;28;20217;-86
2023/08/26 05:39:39;;;;;;;16.67;15.77;;;21.20;99.90;;;;;;5078421;28;20456;-85
2023/08/26 05:42:08;;;;;;;16.13;15.43;;;21.10;1.00;;;;;;5080247;28;20457;-88
2023/08/26 05:44:46;;;;;;;16.80;16.00;;;21.20;1.00;;;;;;5079527;28;20512;-85
2023/08/26 05:47:17;;;;;;;17.20;16.40;;;21.20;1.00;;;;;;5081841;28;21153;-86
2023/08/26 05:49:49;;;;;;;17.40;16.47;;;21.10;1.00;;;;;;5078491;28;20474;-85
2023/08/26 05:52:19;;;;;;;16.80;15.90;;;21.10;42.40;;;;;;5081890;28;20461;-85
2023/08/26 05:54:53;;;;;;;17.30;16.27;;;21.10;99.90;;;;;;5079675;28;20513;-87
2023/08/26 05:57:24;;;;;;;17.30;16.40;;;21.20;1.00;;;;;;5077292;28;20437;-86
2023/08/26 05:59:57;;;;;;;16.23;15.53;;;21.30;1.00;;;;;;5081337;28;21150;-87
2023/08/26 06:02:31;;;;;;;16.23;15.53;;;21.40;1.00;;;;;;5086306;28;20458;-85
2023/08/26 06:05:02;;;;;;;16.60;15.80;;;21.60;99.90;;;;;;5078345;28;20480;-86
2023/08/26 06:07:34;;;;;;;16.85;16.15;;;21.80;99.90;;;;;;5077255;28;20459;-86
2023/08/26 06:10:04;;;;;;;16.33;15.57;;;22.00;1.00;;;;;;5077235;28;20294;-85
2023/08/26 06:12:36;;;;;;;16.67;15.83;;;22.20;99.90;;;;;;5083683;28;20451;-88
2023/08/26 06:15:07;;;;;;;16.47;15.77;;;22.30;12.50;;;;;;5079351;28;20446;-86
2023/08/26 06:17:41;;;;;;;16.00;15.20;;;22.50;1.00;;;;;;5079833;28;21379;-86
2023/08/26 06:20:14;;;;;;;16.43;15.73;;;22.80;99.90;;;;;;5079018;28;20469;-86
2023/08/26 06:22:45;;;;;;;16.93;16.23;;;23.10;99.90;;;;;;5077768;28;21013;-85
2023/08/26 06:25:16;;;;;;;17.20;16.20;;;23.40;99.90;;;;;;5080076;28;20478;-86
2023/08/26 06:27:45;;;;;;;16.60;16.00;;;23.60;99.90;;;;;;5074630;28;20445;-85
2023/08/26 06:30:22;;;;;;;18.07;17.03;;;23.80;53.60;;;;;;5075145;28;20486;-85
2023/08/26 06:32:51;;;;;;;16.75;16.05;;;24.00;8.10;;;;;;5080180;28;20461;-85
2023/08/26 06:35:19;;;;;;;16.33;15.73;;;24.10;1.00;;;;;;5076044;28;20195;-87
2023/08/26 06:37:48;;;;;;;16.13;15.43;;;24.20;1.00;;;;;;5075338;28;20459;-86
2023/08/26 06:40:19;;;;;;;16.08;15.38;;;24.20;1.00;;;;;;5077835;28;20836;-85
2023/08/26 06:42:48;;;;;;;16.00;15.00;;;24.20;1.00;;;;;;5079208;28;20204;-85
2023/08/26 06:45:35;;;;;;;17.13;16.00;;;24.00;1.00;;;;;;5077964;28;20235;-85
2023/08/26 06:48:09;;;;;;;15.67;15.00;;;23.60;1.00;;;;;;5075948;28;20882;-87
2023/08/26 06:50:43;;;;;;;16.40;15.60;;;23.30;1.00;;;;;;5077163;28;20481;-87
2023/08/26 06:53:20;;;;;;;16.50;15.80;;;23.10;1.00;;;;;;5077283;28;20437;-86
2023/08/26 06:55:54;;;;;;;16.40;15.80;;;23.00;5.00;;;;;;5079640;28;20448;-87
2023/08/26 06:58:23;;;;;;;16.30;15.53;;;22.90;90.60;;;;;;5081442;28;20892;-86
2023/08/26 07:00:55;;;;;;;16.70;15.90;;;22.70;99.90;;;;;;5087838;28;20572;-87
2023/08/26 07:03:27;;;;;;;16.10;15.40;;;22.60;99.90;;;;;;5089131;28;20849;-88
2023/08/26 07:05:58;;;;;;;16.10;15.43;;;22.60;99.90;;;;;;5082286;28;21060;-86
2023/08/26 07:08:31;;;;;;;17.07;16.27;;;22.50;99.90;;;;;;5081798;28;20528;-85
2023/08/26 07:11:03;;;;;;;17.20;16.20;;;22.50;99.90;;;;;;5088243;28;20474;-86
2023/08/26 07:13:33;;;;;;;16.13;15.47;;;22.50;99.90;;;;;;5082837;28;20864;-85
2023/08/26 07:16:05;;;;;;;16.30;15.30;;;22.60;99.90;;;;;;5113020;28;20442;-92
2023/08/26 07:18:39;;;;;;;16.30;15.70;;;22.60;99.90;;;;;;5095412;28;20745;-86
2023/08/26 07:21:10;;;;;;;16.30;15.70;;;22.70;99.90;;;;;;5087106;28;20470;-85
2023/08/26 07:23:41;;;;;;;16.10;15.43;;;22.70;99.90;;;;;;5085639;28;20466;-87
2023/08/26 07:26:22;;;;;;;15.93;15.23;;;22.70;99.90;;;;;;5080705;28;20522;-86
2023/08/26 07:28:54;;;;;;;17.27;16.30;;;22.80;81.10;;;;;;5081449;28;20441;-86
2023/08/26 07:31:31;;;;;;;15.80;15.10;;;22.80;64.60;;;;;;5088565;28;20505;-87
2023/08/26 07:34:05;;;;;;;16.03;15.03;;;22.80;64.60;;;;;;5084718;28;21176;-85
2023/08/26 07:36:34;;;;;;;15.90;15.20;;;22.80;73.70;;;;;;5087424;28;20842;-85
2023/08/26 07:39:08;;;;;;;16.70;15.70;;;22.80;74.90;;;;;;5084016;28;20446;-85
2023/08/26 07:41:39;;;;;;;16.33;15.60;;;22.90;99.90;;;;;;5085942;28;20468;-87
2023/08/26 07:44:19;;;;;;;16.33;15.50;;;22.90;75.10;;;;;;5080013;28;20441;-85
2023/08/26 07:46:51;;;;;;;16.17;15.37;;;22.90;23.20;;;;;;5085808;28;21069;-87
2023/08/26 07:49:22;;;;;;;15.70;15.00;;;22.90;1.00;;;;;;5087128;28;20453;-85
2023/08/26 07:51:51;;;;;;;16.07;15.27;;;22.90;91.90;;;;;;5080873;28;20486;-86
2023/08/26 07:54:23;;;;;;;16.37;15.23;;;23.00;65.00;;;;;;5079142;28;20449;-86
2023/08/26 07:56:56;;;;;;;16.17;15.37;;;23.10;99.90;;;;;;5078053;28;20449;-85
2023/08/26 07:59:41;;;;;;;16.90;16.00;;;23.10;6.00;;;;;;5085704;28;20499;-85
2023/08/26 08:02:11;;;;;;;15.50;14.73;;;23.30;65.00;;;;;;5079490;28;20223;-85
2023/08/26 08:04:43;;;;;;;16.30;15.30;;;23.40;1.00;;;;;;5082065;28;20454;-85
2023/08/26 08:07:16;;;;;;;16.20;15.60;;;23.30;1.00;;;;;;5079856;28;20528;-87
2023/08/26 08:09:53;;;;;;;16.70;15.80;;;23.20;1.00;;;;;;5076478;28;20574;-85
2023/08/26 08:12:26;;;;;;;16.33;15.43;;;23.00;1.00;;;;;;5081272;28;20446;-85
2023/08/26 08:15:00;;;;;;;16.07;15.37;;;23.00;13.50;;;;;;5080068;28;20967;-86
2023/08/26 08:17:36;;;;;;;16.13;15.30;;;23.00;47.10;;;;;;5083576;28;20512;-85
2023/08/26 08:20:05;;;;;;;16.27;15.60;;;23.00;1.00;;;;;;5076476;28;20474;-87
2023/08/26 08:22:41;;;;;;;15.80;15.10;;;23.00;1.00;;;;;;5082304;28;20460;-85
2023/08/26 08:25:11;;;;;;;15.93;15.32;;;23.10;1.00;;;;;;5083037;28;20805;-87
2023/08/26 08:27:41;;;;;;;16.50;15.40;;;23.10;1.00;;;;;;5081915;28;20205;-85
2023/08/26 08:30:14;;;;;;;17.43;16.17;;;23.20;1.00;;;;;;5079780;28;20505;-85
2023/08/26 08:32:50;;;;;;;16.30;15.30;;;23.30;1.00;;;;;;5079959;28;20448;-84
2023/08/26 08:35:21;;;;;;;17.33;15.97;;;23.30;1.00;;;;;;5081549;28;20300;-86
2023/08/26 08:37:52;;;;;;;15.80;15.20;;;23.40;1.00;;;;;;5086388;28;20541;-85
2023/08/26 08:40:21;;;;;;;16.37;15.67;;;23.40;1.00;;;;;;5080553;28;20553;-86
2023/08/26 08:42:52;;;;;;;16.23;15.45;;;23.40;1.00;;;;;;5078016;28;20491;-86
2023/08/26 08:45:29;;;;;;;16.43;15.50;;;23.30;1.00;;;;;;5084514;28;20208;-85
2023/08/26 08:48:00;;;;;;;16.10;15.33;;;23.20;1.00;;;;;;5080150;28;20449;-85
2023/08/26 08:50:40;;;;;;;16.90;16.00;;;22.90;1.00;;;;;;5080901;28;21022;-88
2023/08/26 08:53:17;;;;;;;16.33;15.57;;;22.90;1.00;;;;;;5079019;28;20442;-85
2023/08/26 08:55:49;;;;;;;16.50;15.73;;;22.90;1.00;;;;;;5080707;28;20478;-86
2023/08/26 08:58:25;;;;;;;16.50;15.50;;;23.10;1.00;;;;;;5078261;28;20449;-85
2023/08/26 09:00:57;;;;;;;15.82;15.23;;;23.10;1.00;;;;;;5083668;28;20538;-87
2023/08/26 09:03:32;;;;;;;16.27;15.57;;;23.10;1.00;;;;;;5081045;28;20580;-85
2023/08/26 09:06:04;;;;;;;16.80;15.60;;;23.30;1.00;;;;;;5082165;28;20474;-85
2023/08/26 09:08:45;;;;;;;16.30;15.60;;;23.30;1.00;;;;;;5076699;28;20549;-86
2023/08/26 09:11:21;;;;;;;16.73;15.63;;;23.30;1.00;;;;;;5079751;28;20473;-85
2023/08/26 09:13:54;;;;;;;16.77;15.87;;;23.40;1.00;;;;;;5078180;28;20208;-86
2023/08/26 09:16:32;;;;;;;16.87;15.97;;;23.50;1.00;;;;;;5080709;28;20441;-85
2023/08/26 09:19:15;;;;;;;16.50;15.60;;;23.40;1.00;;;;;;5076809;28;20732;-86
2023/08/26 09:21:47;;;;;;;16.77;15.67;;;23.40;1.00;;;;;;5079128;28;20481;-86
2023/08/26 09:24:22;;;;;;;16.67;15.77;;;23.40;1.00;;;;;;5081120;28;20453;-86
2023/08/26 09:26:59;;;;;;;16.73;16.00;;;23.30;1.00;;;;;;5084985;28;20505;-86
2023/08/26 09:29:35;;;;;;;16.77;16.10;;;23.20;1.00;;;;;;5077860;28;20449;-86
2023/08/26 09:32:17;;;;;;;16.70;16.00;;;23.10;1.00;;;;;;5078094;28;20450;-86
2023/08/26 09:34:48;;;;;;;17.30;16.17;;;23.10;1.00;;;;;;5077728;28;20445;-86
2023/08/26 09:37:33;;;;;;;15.80;15.10;;;23.10;1.00;;;;;;5078215;28;21023;-86
2023/08/26 09:40:01;;;;;;;16.23;15.43;;;23.00;1.00;;;;;;5078782;28;20463;-85
2023/08/26 09:42:35;;;;;;;16.97;16.20;;;23.00;1.00;;;;;;5076423;28;20446;-85
2023/08/26 09:45:08;;;;;;;16.57;15.67;;;23.00;1.00;;;;;;5079083;28;20446;-86
2023/08/26 09:47:42;;;;;;;16.83;16.00;;;22.90;1.00;;;;;;5079249;28;20473;-85
2023/08/26 09:50:31;;;;;;;17.40;16.40;;;22.90;1.00;;;;;;5079261;28;20960;-88
2023/08/26 09:53:05;;;;;;;17.43;16.40;;;22.90;10.60;;;;;;5078853;28;20445;-85
2023/08/26 09:55:39;;;;;;;15.73;15.10;;;22.90;99.90;;;;;;5077998;28;20776;-85
2023/08/26 09:58:10;;;;;;;16.40;15.63;;;23.00;99.90;;;;;;5075107;28;20439;-87
2023/08/26 10:00:48;;;;;;;17.63;16.53;;;23.00;99.90;;;;;;5075046;28;20470;-86
2023/08/26 10:03:23;;;;;;;16.90;16.10;;;23.20;99.90;;;;;;5075580;28;20453;-87
2023/08/26 10:05:59;;;;;;;16.55;15.85;;;23.20;99.90;;;;;;5075797;28;20455;-89
2023/08/26 10:08:33;;;;;;;16.33;15.73;;;23.20;99.90;;;;;;5078034;28;20200;-85
2023/08/26 10:11:04;;;;;;;16.27;15.70;;;23.40;99.70;;;;;;5078280;28;20462;-86
2023/08/26 10:13:39;;;;;;;17.53;16.63;;;23.30;96.80;;;;;;5078978;28;20485;-87
2023/08/26 10:16:18;;;;;;;17.43;16.73;;;23.20;17.40;;;;;;5077121;28;20458;-86
2023/08/26 10:19:03;;;;;;;16.73;16.13;;;23.20;92.50;;;;;;5098570;28;20451;-87
2023/08/26 10:21:34;;;;;;;16.87;16.17;;;23.20;68.40;;;;;;5083612;28;21030;-87
2023/08/26 10:24:07;;;;;;;16.57;15.97;;;23.20;99.90;;;;;;5085144;28;20451;-85
2023/08/26 10:26:48;;;;;;;18.43;17.47;;;23.10;99.90;;;;;;5079661;28;20474;-85
2023/08/26 10:29:20;;;;;;;17.90;16.97;;;23.10;91.10;;;;;;5076598;28;20446;-85
2023/08/26 10:31:49;;;;;;;17.37;16.67;;;23.10;99.90;;;;;;5078486;28;20540;-86
2023/08/26 10:34:20;;;;;;;18.20;17.20;;;23.00;64.60;;;;;;5077800;28;20462;-84
2023/08/26 10:36:50;;;;;;;18.63;17.53;;;23.00;99.90;;;;;;5077161;28;21012;-86
2023/08/26 10:39:22;;;;;;;17.73;16.93;;;22.90;99.90;;;;;;5078585;28;20820;-86
2023/08/26 10:42:12;;;;;;;17.20;16.50;;;23.00;99.90;;;;;;5074851;28;20482;-85
2023/08/26 10:44:47;;;;;;;17.80;17.00;;;22.80;99.90;;;;;;5079971;28;20226;-86
2023/08/26 10:47:35;;;;;;;16.88;16.25;;;22.80;99.90;;;;;;5077291;28;20482;-86
2023/08/26 10:50:18;;;;;;;17.93;16.93;;;22.80;99.90;;;;;;5082209;28;20226;-85
2023/08/26 10:52:52;;;;;;;17.53;16.73;;;22.80;99.90;;;;;;5078114;28;20468;-85
2023/08/26 10:55:21;;;;;;;17.30;16.50;;;22.80;99.90;;;;;;5075747;28;20764;-85
2023/08/26 10:58:13;;;;;;;18.30;17.43;;;22.80;99.90;;;;;;5074745;28;20554;-85
2023/08/26 11:00:45;;;;;;;17.65;16.90;;;22.80;99.90;;;;;;5077323;28;20474;-86
2023/08/26 11:03:21;;;;;;;17.50;16.70;;;22.90;99.90;;;;;;5078344;28;20552;-86
2023/08/26 11:06:04;;;;;;;17.40;16.47;;;22.90;99.90;;;;;;5078604;28;20451;-85
2023/08/26 11:08:36;;;;;;;18.00;17.00;;;22.90;99.90;;;;;;5074133;28;20494;-85
2023/08/26 11:11:05;;;;;;;18.13;17.33;;;22.90;99.90;;;;;;5078306;28;20647;-87
2023/08/26 11:13:35;;;;;;;17.97;16.83;;;22.90;99.90;;;;;;5076598;28;20935;-86
2023/08/26 11:16:08;;;;;;;17.55;16.73;;;22.90;99.90;;;;;;5083408;28;20469;-87
2023/08/26 11:18:43;;;;;;;18.40;17.30;;;22.90;99.90;;;;;;5077264;28;20587;-89
2023/08/26 11:21:21;;;;;;;17.40;16.47;;;22.80;99.90;;;;;;5081234;28;20466;-86
2023/08/26 11:23:54;;;;;;;18.40;17.43;;;22.70;99.90;;;;;;5070044;28;20892;-85
2023/08/26 11:26:34;;;;;;;18.23;17.40;;;22.70;99.90;;;;;;5092102;28;20479;-86
2023/08/26 11:29:06;;;;;;;18.40;17.50;;;22.70;99.90;;;;;;5082109;28;20463;-85
2023/08/26 11:31:35;;;;;;;19.27;17.87;;;22.70;99.90;;;;;;5080312;28;20462;-85
2023/08/26 11:34:08;;;;;;;18.00;17.10;;;22.70;99.90;;;;;;5076140;28;20457;-86
2023/08/26 11:36:44;;;;;;;17.50;16.70;;;22.70;1.00;;;;;;5077265;28;20817;-86
2023/08/26 11:39:21;;;;;;;18.90;17.70;;;22.60;99.90;;;;;;5080258;28;20479;-86
2023/08/26 11:41:53;;;;;;;18.23;17.10;;;22.50;99.90;;;;;;5079824;28;20483;-87
2023/08/26 11:44:22;;;;;;;18.70;17.70;;;22.50;1.00;;;;;;5082212;28;20864;-85
2023/08/26 11:46:53;;;;;;;18.17;17.30;;;22.50;99.90;;;;;;5081718;28;20446;-86
2023/08/26 11:49:26;;;;;;;18.05;17.10;;;22.50;1.00;;;;;;5083998;28;20439;-87
2023/08/26 11:51:55;;;;;;;18.40;17.50;;;22.50;1.00;;;;;;5081081;28;20193;-85
2023/08/26 11:54:35;;;;;;;18.20;17.00;;;22.50;1.00;;;;;;5084930;28;20442;-85
2023/08/26 11:57:05;;;;;;;18.80;18.00;;;22.40;1.00;;;;;;5074183;28;20454;-88
2023/08/26 11:59:40;;;;;;;17.88;16.75;;;22.40;1.00;;;;;;5082022;28;20446;-85
2023/08/26 12:02:25;;;;;;;18.20;17.33;;;22.40;99.90;;;;;;5081987;28;20571;-86
2023/08/26 12:05:00;;;;;;;18.17;17.17;;;22.30;99.90;;;;;;5076768;28;20938;-86
2023/08/26 12:07:38;;;;;;;18.43;17.37;;;22.20;1.00;;;;;;5086613;28;20486;-87
2023/08/26 12:10:25;;;;;;;17.87;17.00;;;22.30;1.00;;;;;;5098298;28;20497;-85
2023/08/26 12:13:04;;;;;;;18.00;17.07;;;22.20;1.00;;;;;;5080007;28;20450;-85
2023/08/26 12:15:39;;;;;;;18.47;17.67;;;22.30;99.90;;;;;;5076959;28;20456;-86
2023/08/26 12:18:14;;;;;;;17.90;16.90;;;22.30;99.90;;;;;;5079859;28;20456;-85
2023/08/26 12:20:54;;;;;;;18.27;17.27;;;22.20;1.00;;;;;;5095931;28;20871;-85
2023/08/26 12:23:25;;;;;;;18.17;17.37;;;22.20;1.00;;;;;;5081926;28;20838;-85
2023/08/26 12:26:13;;;;;;;19.43;18.37;;;22.20;1.00;;;;;;5080772;28;20481;-86
2023/08/26 12:28:45;;;;;;;19.50;18.03;;;22.20;1.00;;;;;;5079714;28;20589;-85
2023/08/26 12:31:21;;;;;;;18.53;17.50;;;22.10;1.00;;;;;;5078239;28;20485;-86
2023/08/26 12:33:53;;;;;;;17.43;16.33;;;22.10;99.90;;;;;;5081907;28;20543;-85
2023/08/26 12:36:28;;;;;;;18.50;17.60;;;22.10;99.90;;;;;;5080501;28;20559;-86
2023/08/26 12:39:02;;;;;;;17.80;16.90;;;22.10;99.90;;;;;;5080860;28;20460;-87
2023/08/26 12:41:37;;;;;;;17.40;16.60;;;22.00;28.80;;;;;;5083753;28;20473;-85
2023/08/26 12:44:07;;;;;;;17.47;16.57;;;21.90;99.90;;;;;;5078609;28;20449;-88
2023/08/26 12:46:40;;;;;;;15.32;14.73;;;21.90;99.90;;;;;;5078690;28;20466;-85
2023/08/26 12:49:22;;;;;;;16.60;15.60;;;21.80;1.00;;;;;;5079862;28;20220;-87
2023/08/26 12:52:00;;;;;;;16.93;16.07;;;21.80;1.00;;;;;;5077963;28;20462;-87
2023/08/26 12:54:30;;;;;;;16.50;15.70;;;21.70;99.90;;;;;;5079722;28;20452;-83
2023/08/26 12:57:04;;;;;;;16.40;15.70;;;21.60;99.90;;;;;;5080016;28;20446;-85
2023/08/26 12:59:42;;;;;;;16.17;15.38;;;21.60;99.90;;;;;;5082457;28;20482;-85
2023/08/26 13:02:20;;;;;;;16.33;15.60;;;21.60;1.00;;;;;;5079834;28;20295;-85